Challenge Peak — 9V9589 — position and weather

sailwx.info

Track history (hours):
 
Tides and Currents Weather Stations Pressure Air Temp Water Temp Dewpoint Dewpoint Depression Visibility Wind Speed Wind Dir Waves Ship Positions

Challenge Peak

Last reported at 2016-Feb-05 07:34 UTC. Time now 2016-Feb-07 13:04 UTC.
Position N 30°38' E 122°54'.

Length 182 m; draft 7 m.

Type: Tanker. MMSI: 566433000.

Date/timePositionNaut miles runAvg speedWind from/ knotsBaromVisibWave heightAir tempDewpointWater temp
2016-Feb-05 07:34N 30°38' E 122°54'1110.8
2016-Feb-05 06:32N 30°36' E 122°42'1511.7
2016-Feb-05 05:16N 30°31' E 122°25'1013.4
2016-Feb-05 04:30N 30°33' E 122°13'1011.2
2016-Feb-05 03:33N 30°34' E 122°01'1413.8
2016-Feb-05 02:33N 30°39' E 121°46'1211.8
2016-Feb-05 01:33N 30°43' E 121°34'6 2.6
2016-Feb-04 23:11N 30°46' E 121°27'0 0.0
2016-Feb-04 22:32N 30°46' E 121°27'0 0.0
2016-Feb-04 20:26N 30°46' E 121°27'0 0.0
2016-Feb-04 19:17N 30°46' E 121°27'0 0.0
2016-Feb-04 18:32N 30°46' E 121°27'0 0.0
2016-Feb-04 17:32N 30°46' E 121°27'0 0.0
2016-Feb-04 16:32N 30°46' E 121°27'0 0.0
2016-Feb-04 15:32N 30°46' E 121°27'0 0.0
2016-Feb-04 14:29N 30°46' E 121°27'0 0.0
2016-Feb-04 13:32N 30°46' E 121°27'0 0.0
2016-Feb-04 12:32N 30°46' E 121°27'0 0.0
2016-Feb-03 10:17N 30°46' E 121°27'0 0.0
2016-Feb-03 09:32N 30°46' E 121°27'0 0.0
2016-Feb-03 08:32N 30°46' E 121°27'0 0.0
2016-Feb-03 07:29N 30°46' E 121°27'0 0.0
2016-Feb-03 06:29N 30°46' E 121°27'0 0.0
2016-Feb-03 05:26N 30°46' E 121°27'0 0.0
2016-Feb-03 04:32N 30°46' E 121°27'0 0.0
2016-Feb-03 03:32N 30°46' E 121°27'0 0.0
2016-Feb-03 02:32N 30°46' E 121°27'0 0.0
2016-Feb-03 01:32N 30°46' E 121°27'0 0.0
2016-Feb-03 00:32N 30°46' E 121°27'0 0.0
2016-Feb-02 23:32N 30°46' E 121°27'0 0.0
2016-Feb-02 22:32N 30°46' E 121°27'0 0.0
2016-Feb-02 21:32N 30°46' E 121°27'0 0.0
2016-Feb-02 20:32N 30°46' E 121°27'0 0.0
2016-Feb-02 19:32N 30°46' E 121°27'0 0.0
2016-Feb-02 18:29N 30°46' E 121°27'0 0.0
2016-Feb-02 17:32N 30°46' E 121°27'0 0.0
2016-Feb-02 16:29N 30°46' E 121°27'0 0.0
2016-Feb-02 15:32N 30°46' E 121°27'0 0.0
2016-Feb-02 14:32N 30°46' E 121°27'0 0.0
2016-Feb-02 13:32N 30°46' E 121°27'0 0.0
2016-Feb-02 12:29N 30°46' E 121°27'0 0.0
2016-Feb-02 11:32N 30°46' E 121°27'0 0.0
2016-Feb-02 10:32N 30°46' E 121°27'0 0.0
2016-Feb-02 09:34N 30°46' E 121°27'2 1.9
2016-Feb-02 08:34N 30°44' E 121°28'6 5.6
2016-Feb-02 07:33N 30°40' E 121°23'4 3.6
2016-Feb-02 06:32N 30°40' E 121°19'0 0.2
2016-Feb-02 05:32N 30°40' E 121°19'0 0.1
2016-Feb-02 04:32N 30°40' E 121°19'0 0.0
2016-Feb-02 03:32N 30°40' E 121°19'0 0.0
2016-Feb-02 02:32N 30°40' E 121°19'0 0.0
2016-Feb-02 01:29N 30°40' E 121°19'0 0.0
2016-Feb-02 00:32N 30°40' E 121°19'0 0.1
2016-Feb-01 23:29N 30°40' E 121°19'0 0.2
2016-Feb-01 22:26N 30°40' E 121°19'0 0.0
2016-Feb-01 21:32N 30°40' E 121°19'0 0.0
2016-Feb-01 20:29N 30°40' E 121°19'0 0.0
2016-Feb-01 19:32N 30°40' E 121°19'0 0.0
2016-Feb-01 18:32N 30°40' E 121°19'0 0.1
2016-Feb-01 17:32N 30°40' E 121°19'0 0.2
2016-Feb-01 16:32N 30°40' E 121°19'0 0.1
2016-Feb-01 15:26N 30°40' E 121°19'0 0.0
2016-Feb-01 14:32N 30°40' E 121°19'0 0.0
2016-Feb-01 13:26N 30°40' E 121°19'0 0.0
2016-Feb-01 12:32N 30°40' E 121°19'0 0.0
2016-Feb-01 11:32N 30°40' E 121°19'0 0.2
2016-Feb-01 10:32N 30°40' E 121°19'0 0.2
2016-Feb-01 09:32N 30°40' E 121°19'0 0.0
2016-Feb-01 08:32N 30°40' E 121°19'0 0.0
2016-Feb-01 07:32N 30°40' E 121°19'0 0.0
2016-Feb-01 06:32N 30°40' E 121°19'0 0.1
2016-Feb-01 05:32N 30°40' E 121°19'0 0.1
2016-Feb-01 04:32N 30°40' E 121°19'0 0.1
2016-Feb-01 03:32N 30°40' E 121°19'0 0.0
2016-Feb-01 02:32N 30°40' E 121°19'0 0.0
2016-Feb-01 01:32N 30°40' E 121°19'0 0.0
2016-Feb-01 00:32N 30°40' E 121°19'0 0.0
2016-Jan-31 23:29N 30°40' E 121°19'0 0.2
2016-Jan-31 22:32N 30°40' E 121°19'0 0.2
2016-Jan-31 21:32N 30°40' E 121°19'0 0.0
2016-Jan-31 20:32N 30°40' E 121°19'0 0.0
2016-Jan-31 19:32N 30°40' E 121°19'0 0.0
2016-Jan-31 18:32N 30°40' E 121°19'0 0.0
2016-Jan-31 17:32N 30°40' E 121°19'0 0.1
2016-Jan-31 16:32N 30°40' E 121°19'0 0.2
2016-Jan-31 15:32N 30°40' E 121°19'0 0.0
2016-Jan-31 14:32N 30°40' E 121°19'0 0.0
2016-Jan-31 13:32N 30°40' E 121°19'0 0.0
2016-Jan-31 12:32N 30°40' E 121°19'0 0.1
2016-Jan-31 11:32N 30°40' E 121°19'0 0.0
2016-Jan-31 10:32N 30°40' E 121°19'0 0.2
2016-Jan-31 09:32N 30°40' E 121°19'0 0.1
2016-Jan-31 08:29N 30°40' E 121°19'0 0.1
2016-Jan-31 07:32N 30°40' E 121°19'0 0.0
2016-Jan-31 06:32N 30°40' E 121°19'0 0.0
2016-Jan-31 05:32N 30°40' E 121°19'0 0.0
2016-Jan-31 04:32N 30°40' E 121°19'0 0.2
2016-Jan-31 03:32N 30°40' E 121°19'0 0.0
2016-Jan-31 02:32N 30°40' E 121°19'0 0.0
2016-Jan-31 01:32N 30°40' E 121°19'0 0.0
2016-Jan-31 00:29N 30°40' E 121°19'0 0.0
2016-Jan-30 23:32N 30°40' E 121°19'0 0.0
2016-Jan-30 22:32N 30°40' E 121°19'0 0.3
2016-Jan-30 21:32N 30°40' E 121°19'0 0.1
2016-Jan-30 20:26N 30°40' E 121°19'0 0.0
2016-Jan-30 19:32N 30°40' E 121°19'0 0.0
2016-Jan-30 18:32N 30°40' E 121°19'0 0.1
2016-Jan-30 17:32N 30°40' E 121°19'0 0.0
2016-Jan-30 16:32N 30°40' E 121°19'0 0.2
2016-Jan-30 15:32N 30°40' E 121°19'0 0.1
2016-Jan-30 14:32N 30°40' E 121°19'0 0.0
2016-Jan-30 13:32N 30°40' E 121°19'0 0.0
2016-Jan-30 12:26N 30°40' E 121°19'0 0.0
2016-Jan-30 11:32N 30°40' E 121°19'0 0.1
2016-Jan-30 10:32N 30°40' E 121°19'0 0.0
2016-Jan-30 09:32N 30°40' E 121°19'0 0.2
2016-Jan-30 08:32N 30°40' E 121°19'1 0.8
2016-Jan-30 07:33N 30°39' E 121°19'1010.3
2016-Jan-30 06:33N 30°33' E 121°28'1413.8
2016-Jan-30 05:33N 30°30' E 121°44'1312.4
2016-Jan-30 04:31N 30°31' E 121°59'1313.2
2016-Jan-30 03:32N 30°34' E 122°14'1211.7
2016-Jan-30 02:32N 30°32' E 122°27'1111.5
2016-Jan-30 01:33N 30°40' E 122°37'  
Track history (hours):
 
Tides and Currents Weather Stations Pressure Air Temp Water Temp Dewpoint Dewpoint Depression Visibility Wind Speed Wind Dir Waves Ship Positions

Challenge Peak

Last reported at 2016-Feb-05 07:34 UTC. Time now 2016-Feb-07 13:04 UTC.
Position N 30°38' E 122°54'.

Length 182 m; draft 7 m.

Type: Tanker. MMSI: 566433000.

Date/timePositionNaut miles runAvg speedWind from/ knotsBaromVisibWave heightAir tempDewpointWater temp
2016-Feb-05 07:34N 30°38' E 122°54'1110.8
2016-Feb-05 06:32N 30°36' E 122°42'1511.7
2016-Feb-05 05:16N 30°31' E 122°25'1013.4
2016-Feb-05 04:30N 30°33' E 122°13'1011.2
2016-Feb-05 03:33N 30°34' E 122°01'1413.8
2016-Feb-05 02:33N 30°39' E 121°46'1211.8
2016-Feb-05 01:33N 30°43' E 121°34'6 2.6
2016-Feb-04 23:11N 30°46' E 121°27'0 0.0
2016-Feb-04 22:32N 30°46' E 121°27'0 0.0
2016-Feb-04 20:26N 30°46' E 121°27'0 0.0
2016-Feb-04 19:17N 30°46' E 121°27'0 0.0
2016-Feb-04 18:32N 30°46' E 121°27'0 0.0
2016-Feb-04 17:32N 30°46' E 121°27'0 0.0
2016-Feb-04 16:32N 30°46' E 121°27'0 0.0
2016-Feb-04 15:32N 30°46' E 121°27'0 0.0
2016-Feb-04 14:29N 30°46' E 121°27'0 0.0
2016-Feb-04 13:32N 30°46' E 121°27'0 0.0
2016-Feb-04 12:32N 30°46' E 121°27'0 0.0
2016-Feb-03 10:17N 30°46' E 121°27'0 0.0
2016-Feb-03 09:32N 30°46' E 121°27'0 0.0
2016-Feb-03 08:32N 30°46' E 121°27'0 0.0
2016-Feb-03 07:29N 30°46' E 121°27'0 0.0
2016-Feb-03 06:29N 30°46' E 121°27'0 0.0
2016-Feb-03 05:26N 30°46' E 121°27'0 0.0
2016-Feb-03 04:32N 30°46' E 121°27'0 0.0
2016-Feb-03 03:32N 30°46' E 121°27'0 0.0
2016-Feb-03 02:32N 30°46' E 121°27'0 0.0
2016-Feb-03 01:32N 30°46' E 121°27'0 0.0
2016-Feb-03 00:32N 30°46' E 121°27'0 0.0
2016-Feb-02 23:32N 30°46' E 121°27'0 0.0
2016-Feb-02 22:32N 30°46' E 121°27'0 0.0
2016-Feb-02 21:32N 30°46' E 121°27'0 0.0
2016-Feb-02 20:32N 30°46' E 121°27'0 0.0
2016-Feb-02 19:32N 30°46' E 121°27'0 0.0
2016-Feb-02 18:29N 30°46' E 121°27'0 0.0
2016-Feb-02 17:32N 30°46' E 121°27'0 0.0
2016-Feb-02 16:29N 30°46' E 121°27'0 0.0
2016-Feb-02 15:32N 30°46' E 121°27'0 0.0
2016-Feb-02 14:32N 30°46' E 121°27'0 0.0
2016-Feb-02 13:32N 30°46' E 121°27'0 0.0
2016-Feb-02 12:29N 30°46' E 121°27'0 0.0
2016-Feb-02 11:32N 30°46' E 121°27'0 0.0
2016-Feb-02 10:32N 30°46' E 121°27'0 0.0
2016-Feb-02 09:34N 30°46' E 121°27'2 1.9
2016-Feb-02 08:34N 30°44' E 121°28'6 5.6
2016-Feb-02 07:33N 30°40' E 121°23'4 3.6
2016-Feb-02 06:32N 30°40' E 121°19'0 0.2
2016-Feb-02 05:32N 30°40' E 121°19'0 0.1
2016-Feb-02 04:32N 30°40' E 121°19'0 0.0
2016-Feb-02 03:32N 30°40' E 121°19'0 0.0
2016-Feb-02 02:32N 30°40' E 121°19'0 0.0
2016-Feb-02 01:29N 30°40' E 121°19'0 0.0
2016-Feb-02 00:32N 30°40' E 121°19'0 0.1
2016-Feb-01 23:29N 30°40' E 121°19'0 0.2
2016-Feb-01 22:26N 30°40' E 121°19'0 0.0
2016-Feb-01 21:32N 30°40' E 121°19'0 0.0
2016-Feb-01 20:29N 30°40' E 121°19'0 0.0
2016-Feb-01 19:32N 30°40' E 121°19'0 0.0
2016-Feb-01 18:32N 30°40' E 121°19'0 0.1
2016-Feb-01 17:32N 30°40' E 121°19'0 0.2
2016-Feb-01 16:32N 30°40' E 121°19'0 0.1
2016-Feb-01 15:26N 30°40' E 121°19'0 0.0
2016-Feb-01 14:32N 30°40' E 121°19'0 0.0
2016-Feb-01 13:26N 30°40' E 121°19'0 0.0
2016-Feb-01 12:32N 30°40' E 121°19'0 0.0
2016-Feb-01 11:32N 30°40' E 121°19'0 0.2
2016-Feb-01 10:32N 30°40' E 121°19'0 0.2
2016-Feb-01 09:32N 30°40' E 121°19'0 0.0
2016-Feb-01 08:32N 30°40' E 121°19'0 0.0
2016-Feb-01 07:32N 30°40' E 121°19'0 0.0
2016-Feb-01 06:32N 30°40' E 121°19'0 0.1
2016-Feb-01 05:32N 30°40' E 121°19'0 0.1
2016-Feb-01 04:32N 30°40' E 121°19'0 0.1
2016-Feb-01 03:32N 30°40' E 121°19'0 0.0
2016-Feb-01 02:32N 30°40' E 121°19'0 0.0
2016-Feb-01 01:32N 30°40' E 121°19'0 0.0
2016-Feb-01 00:32N 30°40' E 121°19'0 0.0
2016-Jan-31 23:29N 30°40' E 121°19'0 0.2
2016-Jan-31 22:32N 30°40' E 121°19'0 0.2
2016-Jan-31 21:32N 30°40' E 121°19'0 0.0
2016-Jan-31 20:32N 30°40' E 121°19'0 0.0
2016-Jan-31 19:32N 30°40' E 121°19'0 0.0
2016-Jan-31 18:32N 30°40' E 121°19'0 0.0
2016-Jan-31 17:32N 30°40' E 121°19'0 0.1
2016-Jan-31 16:32N 30°40' E 121°19'0 0.2
2016-Jan-31 15:32N 30°40' E 121°19'0 0.0
2016-Jan-31 14:32N 30°40' E 121°19'0 0.0
2016-Jan-31 13:32N 30°40' E 121°19'0 0.0
2016-Jan-31 12:32N 30°40' E 121°19'0 0.1
2016-Jan-31 11:32N 30°40' E 121°19'0 0.0
2016-Jan-31 10:32N 30°40' E 121°19'0 0.2
2016-Jan-31 09:32N 30°40' E 121°19'0 0.1
2016-Jan-31 08:29N 30°40' E 121°19'0 0.1
2016-Jan-31 07:32N 30°40' E 121°19'0 0.0
2016-Jan-31 06:32N 30°40' E 121°19'0 0.0
2016-Jan-31 05:32N 30°40' E 121°19'0 0.0
2016-Jan-31 04:32N 30°40' E 121°19'0 0.2
2016-Jan-31 03:32N 30°40' E 121°19'0 0.0
2016-Jan-31 02:32N 30°40' E 121°19'0 0.0
2016-Jan-31 01:32N 30°40' E 121°19'0 0.0
2016-Jan-31 00:29N 30°40' E 121°19'0 0.0
2016-Jan-30 23:32N 30°40' E 121°19'0 0.0
2016-Jan-30 22:32N 30°40' E 121°19'0 0.3
2016-Jan-30 21:32N 30°40' E 121°19'0 0.1
2016-Jan-30 20:26N 30°40' E 121°19'0 0.0
2016-Jan-30 19:32N 30°40' E 121°19'0 0.0
2016-Jan-30 18:32N 30°40' E 121°19'0 0.1
2016-Jan-30 17:32N 30°40' E 121°19'0 0.0
2016-Jan-30 16:32N 30°40' E 121°19'0 0.2
2016-Jan-30 15:32N 30°40' E 121°19'0 0.1
2016-Jan-30 14:32N 30°40' E 121°19'0 0.0
2016-Jan-30 13:32N 30°40' E 121°19'0 0.0
2016-Jan-30 12:26N 30°40' E 121°19'0 0.0
2016-Jan-30 11:32N 30°40' E 121°19'0 0.1
2016-Jan-30 10:32N 30°40' E 121°19'0 0.0
2016-Jan-30 09:32N 30°40' E 121°19'0 0.2
2016-Jan-30 08:32N 30°40' E 121°19'1 0.8
2016-Jan-30 07:33N 30°39' E 121°19'1010.3
2016-Jan-30 06:33N 30°33' E 121°28'1413.8
2016-Jan-30 05:33N 30°30' E 121°44'1312.4
2016-Jan-30 04:31N 30°31' E 121°59'1313.2
2016-Jan-30 03:32N 30°34' E 122°14'1211.7
2016-Jan-30 02:32N 30°32' E 122°27'1111.5
2016-Jan-30 01:33N 30°40' E 122°37'  

Dump ship's entire track history